createdAt,value
2022-10-14T00:00:05.395Z,30.38
2022-10-14T00:03:13.866Z,31.75
2022-10-14T00:06:18.588Z,32.58
2022-10-14T00:09:20.827Z,28.60
2022-10-14T00:12:23.252Z,27.35
2022-10-14T00:15:25.508Z,27.60
2022-10-14T00:18:28.024Z,32.42
2022-10-14T00:21:30.928Z,33.25
2022-10-14T00:24:33.158Z,32.23
2022-10-14T00:27:35.441Z,35.17
2022-10-14T00:30:39.741Z,40.55
2022-10-14T00:33:42.422Z,40.03
2022-10-14T00:36:46.447Z,41.05
2022-10-14T00:39:57.040Z,47.77
2022-10-14T00:43:00.035Z,41.90
2022-10-14T00:46:02.287Z,43.38
2022-10-14T00:49:15.065Z,36.40
2022-10-14T00:52:19.751Z,46.45
2022-10-14T00:55:22.182Z,39.93
2022-10-14T00:58:24.493Z,38.67
2022-10-14T01:01:26.859Z,38.08
2022-10-14T01:04:29.536Z,42.20
2022-10-14T01:07:39.142Z,40.63
2022-10-14T01:10:53.895Z,34.47
2022-10-14T01:14:11.211Z,39.75
2022-10-14T01:17:48.034Z,35.72
2022-10-14T01:20:54.594Z,39.78
2022-10-14T01:24:24.529Z,40.42
2022-10-14T01:27:26.716Z,39.10
2022-10-14T01:30:34.457Z,38.97
2022-10-14T01:33:40.490Z,40.38
2022-10-14T01:36:54.628Z,44.40
2022-10-14T01:40:04.970Z,34.13
2022-10-14T01:43:08.108Z,38.17
2022-10-14T01:46:11.370Z,32.75
2022-10-14T01:49:21.971Z,33.28
2022-10-14T01:52:27.947Z,31.27
2022-10-14T01:55:33.744Z,30.80
2022-10-14T01:58:37.515Z,31.53
2022-10-14T02:01:39.924Z,30.02
2022-10-14T02:04:42.480Z,32.88
2022-10-14T02:07:47.245Z,31.42
2022-10-14T02:11:04.721Z,32.50
2022-10-14T02:14:16.045Z,28.73
2022-10-14T02:17:32.186Z,30.45
2022-10-14T02:20:44.889Z,32.65
2022-10-14T02:23:57.606Z,35.45
2022-10-14T02:27:03.161Z,38.50
2022-10-14T02:30:07.804Z,37.00
2022-10-14T02:33:10.401Z,42.75
2022-10-14T02:36:14.387Z,34.45
2022-10-14T02:39:22.664Z,39.42
2022-10-14T02:42:25.012Z,42.25
2022-10-14T02:45:27.664Z,42.73
2022-10-14T02:48:30.013Z,40.38
2022-10-14T02:51:32.967Z,41.35
2022-10-14T02:54:35.226Z,43.75
2022-10-14T02:57:37.878Z,36.25
2022-10-14T03:00:40.169Z,37.43
2022-10-14T03:03:42.720Z,41.50
2022-10-14T03:06:45.030Z,36.55
2022-10-14T03:09:48.786Z,37.08
2022-10-14T03:12:51.187Z,33.15
2022-10-14T03:16:03.757Z,36.17
2022-10-14T03:19:07.881Z,33.85
2022-10-14T03:22:19.185Z,34.92
2022-10-14T03:25:21.684Z,37.70
2022-10-14T03:28:42.707Z,31.75
2022-10-14T03:31:52.170Z,31.57
2022-10-14T03:34:59.450Z,34.85
2022-10-14T03:38:03.556Z,31.25
2022-10-14T03:41:08.941Z,33.78
2022-10-14T03:44:11.850Z,32.05
2022-10-14T03:47:19.791Z,30.50
2022-10-14T03:50:23.034Z,31.08
2022-10-14T03:53:28.957Z,33.03
2022-10-14T03:56:31.561Z,36.17
2022-10-14T03:59:34.908Z,30.38
2022-10-14T04:02:37.474Z,32.57
2022-10-14T04:05:41.198Z,31.70
2022-10-14T04:08:48.447Z,34.88
2022-10-14T04:12:00.366Z,35.60
2022-10-14T04:15:23.038Z,43.60
2022-10-14T04:18:42.330Z,39.13
2022-10-14T04:21:47.039Z,42.70
2022-10-14T04:24:51.288Z,38.35
2022-10-14T04:27:53.717Z,40.88
2022-10-14T04:30:58.914Z,40.15
2022-10-14T04:34:06.506Z,42.93
2022-10-14T04:37:13.131Z,41.78
2022-10-14T04:40:36.962Z,41.17
2022-10-14T04:43:40.306Z,44.15
2022-10-14T04:46:56.961Z,40.00
2022-10-14T04:50:01.557Z,38.00
2022-10-14T04:53:10.591Z,41.70
2022-10-14T04:56:22.514Z,42.50
2022-10-14T04:59:31.727Z,36.70
2022-10-14T05:02:36.858Z,45.30
2022-10-14T05:05:39.336Z,44.67
2022-10-14T05:08:41.707Z,39.58
2022-10-14T05:11:47.243Z,47.00
2022-10-14T05:14:55.094Z,42.58
2022-10-14T05:18:07.049Z,45.03
2022-10-14T05:21:32.587Z,53.57
2022-10-14T05:24:50.307Z,57.40
2022-10-14T05:27:53.993Z,54.83
2022-10-14T05:30:57.048Z,61.88
2022-10-14T05:33:59.469Z,68.50
2022-10-14T05:37:02.385Z,56.77
2022-10-14T05:40:11.345Z,54.90
2022-10-14T05:43:13.666Z,48.80
2022-10-14T05:46:19.936Z,49.55
2022-10-14T05:49:28.764Z,58.80
2022-10-14T05:52:34.302Z,51.87
2022-10-14T05:55:42.362Z,47.25
2022-10-14T05:58:44.923Z,52.25
2022-10-14T06:01:47.204Z,51.47
2022-10-14T06:04:49.601Z,43.05
2022-10-14T06:07:52.055Z,50.67
2022-10-14T06:10:54.890Z,48.30
2022-10-14T06:13:57.195Z,59.03
2022-10-14T06:17:00.309Z,41.00
2022-10-14T06:20:03.224Z,40.20
2022-10-14T06:23:05.448Z,43.30
2022-10-14T06:26:09.869Z,36.03
2022-10-14T06:29:12.197Z,40.20
2022-10-14T06:32:14.474Z,39.20
2022-10-14T06:35:16.785Z,40.28
2022-10-14T06:38:19.130Z,39.33
2022-10-14T06:41:21.469Z,38.08
2022-10-14T06:44:23.817Z,35.75
2022-10-14T06:47:26.096Z,37.38
2022-10-14T06:50:28.419Z,44.10
2022-10-14T06:53:30.828Z,43.40
2022-10-14T06:56:34.446Z,43.50
2022-10-14T06:59:39.084Z,56.88
2022-10-14T07:02:41.364Z,55.28
2022-10-14T07:05:44.128Z,67.93
2022-10-14T07:08:46.513Z,53.40
2022-10-14T07:11:48.814Z,42.67
2022-10-14T07:14:51.040Z,45.40
2022-10-14T07:17:53.374Z,44.28
2022-10-14T07:20:55.592Z,44.33
2022-10-14T07:23:57.831Z,56.07
2022-10-14T07:27:00.228Z,44.03
2022-10-14T07:30:02.763Z,134.05
2022-10-14T07:33:05.017Z,42.60
2022-10-14T07:36:15.047Z,36.28
2022-10-14T07:39:19.704Z,45.00
2022-10-14T07:42:22.449Z,37.00
2022-10-14T07:45:24.910Z,30.27
2022-10-14T07:48:45.249Z,30.13
2022-10-14T07:51:54.497Z,31.65
2022-10-14T07:54:56.793Z,28.00
2022-10-14T07:57:59.091Z,31.42
2022-10-14T08:01:01.440Z,27.75
2022-10-14T08:04:03.854Z,28.27
2022-10-14T08:07:06.196Z,27.13
2022-10-14T08:10:09.095Z,28.73
2022-10-14T08:13:11.542Z,26.45
2022-10-14T08:16:31.562Z,25.55
2022-10-14T08:19:33.853Z,32.50
2022-10-14T08:22:36.162Z,24.95
2022-10-14T08:25:40.304Z,30.57
2022-10-14T08:28:42.707Z,33.03
2022-10-14T08:31:45.074Z,28.65
2022-10-14T08:34:47.349Z,25.90
2022-10-14T08:37:59.554Z,24.50
2022-10-14T08:41:04.885Z,28.60
2022-10-14T08:44:25.782Z,26.67
2022-10-14T08:47:37.637Z,29.40
2022-10-14T08:51:16.098Z,24.15
2022-10-14T08:54:35.254Z,22.63
2022-10-14T08:57:51.346Z,24.70
2022-10-14T09:00:53.908Z,17.42
2022-10-14T09:04:07.827Z,18.13
2022-10-14T09:07:19.030Z,23.80
2022-10-14T09:10:27.390Z,23.02
2022-10-14T09:13:35.148Z,16.73
2022-10-14T09:16:40.181Z,21.00
2022-10-14T09:19:50.706Z,18.58
2022-10-14T09:23:05.633Z,20.08
2022-10-14T09:26:12.240Z,19.98
2022-10-14T09:29:27.336Z,19.47
2022-10-14T09:32:40.951Z,17.27
2022-10-14T09:35:43.862Z,22.08
2022-10-14T09:38:52.854Z,19.42
2022-10-14T09:42:35.789Z,21.00
2022-10-14T09:45:59.817Z,23.30
2022-10-14T09:49:02.234Z,23.23
2022-10-14T09:52:05.008Z,15.57
2022-10-14T09:55:19.281Z,34.85
2022-10-14T09:58:35.938Z,21.00
2022-10-14T10:01:41.652Z,17.97
2022-10-14T10:04:47.574Z,20.52
2022-10-14T10:08:06.900Z,23.92
2022-10-14T10:11:14.054Z,19.75
2022-10-14T10:14:32.465Z,19.13
2022-10-14T10:17:38.532Z,18.67
2022-10-14T10:20:40.871Z,20.30
2022-10-14T10:24:03.484Z,19.73
2022-10-14T10:27:26.432Z,15.38
2022-10-14T10:30:43.818Z,24.02
2022-10-14T10:33:56.385Z,18.03
2022-10-14T10:37:06.029Z,16.92
2022-10-14T10:40:17.836Z,20.58
2022-10-14T10:43:35.086Z,15.68
2022-10-14T10:46:37.402Z,19.08
2022-10-14T10:49:51.056Z,17.80
2022-10-14T10:53:18.516Z,16.23
2022-10-14T10:56:39.512Z,17.98
2022-10-14T11:00:13.186Z,24.05
2022-10-14T11:03:21.586Z,16.52
2022-10-14T11:07:12.068Z,19.70
2022-10-14T11:10:36.020Z,18.38
2022-10-14T11:13:57.626Z,16.98
2022-10-14T11:34:56.788Z,17.77
2022-10-14T11:38:09.871Z,14.77
2022-10-14T11:41:36.958Z,17.73
2022-10-14T13:06:03.843Z,26.02
2022-10-14T13:14:35.512Z,28.13
2022-10-14T13:17:48.393Z,19.85
2022-10-14T13:41:30.600Z,22.38
2022-10-14T13:44:34.569Z,22.20
2022-10-14T13:47:37.001Z,22.38
2022-10-14T13:50:39.409Z,25.70
2022-10-14T13:58:23.736Z,29.98
2022-10-14T14:07:02.964Z,21.85
2022-10-14T14:10:10.258Z,22.92
2022-10-14T14:13:13.494Z,26.83
2022-10-14T14:16:24.366Z,21.77
2022-10-14T14:19:33.078Z,21.33
2022-10-14T14:28:40.707Z,21.08
2022-10-14T14:35:12.675Z,23.60
2022-10-14T14:38:33.137Z,26.88
2022-10-14T14:41:35.563Z,23.95
2022-10-14T14:44:39.293Z,23.77
2022-10-14T14:47:41.851Z,25.23
2022-10-14T14:50:45.122Z,23.67
2022-10-14T14:53:51.489Z,25.40
2022-10-14T14:57:01.240Z,24.75
2022-10-14T15:00:06.456Z,26.08
2022-10-14T15:03:09.165Z,24.87
2022-10-14T15:06:15.829Z,25.33
2022-10-14T15:09:30.776Z,23.67
2022-10-14T15:12:39.361Z,24.55
2022-10-14T15:15:53.707Z,24.17
2022-10-14T15:19:37.401Z,28.50
2022-10-14T15:22:43.597Z,25.65
2022-10-14T15:25:57.399Z,26.10
2022-10-14T15:29:16.612Z,25.00
2022-10-14T15:32:20.598Z,26.15
2022-10-14T15:35:24.272Z,27.50
2022-10-14T15:38:27.118Z,24.10
2022-10-14T15:41:29.774Z,22.50
2022-10-14T15:44:32.108Z,22.80
2022-10-14T15:47:35.203Z,28.70
2022-10-14T15:50:39.644Z,25.33
2022-10-14T15:53:42.016Z,22.33
2022-10-14T15:56:47.052Z,24.60
2022-10-14T15:59:49.404Z,23.65
2022-10-14T16:03:00.307Z,26.00
2022-10-14T16:06:02.632Z,29.43
2022-10-14T16:09:05.050Z,29.88
2022-10-14T16:12:14.332Z,31.85
2022-10-14T16:15:16.694Z,30.45
2022-10-14T16:18:19.226Z,31.08
2022-10-14T16:21:21.497Z,41.20
2022-10-14T16:24:27.236Z,34.95
2022-10-14T16:27:29.700Z,30.05
2022-10-14T16:30:31.988Z,36.05
2022-10-14T16:33:34.378Z,33.75
2022-10-14T16:36:38.178Z,34.17
2022-10-14T16:39:40.888Z,38.97
2022-10-14T16:42:44.932Z,40.95
2022-10-14T16:45:47.349Z,35.22
2022-10-14T16:48:49.797Z,38.85
2022-10-14T16:51:52.122Z,33.37
2022-10-14T16:54:54.483Z,33.40
2022-10-14T16:57:56.728Z,29.10
2022-10-14T17:00:59.168Z,30.60
2022-10-14T17:04:01.718Z,30.98
2022-10-14T17:07:07.591Z,35.97
2022-10-14T17:10:10.540Z,38.22
2022-10-14T17:13:13.293Z,37.60
2022-10-14T17:16:15.851Z,36.08
2022-10-14T17:19:18.882Z,46.05
2022-10-14T17:22:21.898Z,40.93
2022-10-14T17:25:24.414Z,41.00
2022-10-14T17:28:26.836Z,37.45
2022-10-14T17:31:29.561Z,34.17
2022-10-14T17:34:32.078Z,37.72
2022-10-14T17:37:38.073Z,36.53
2022-10-14T17:40:40.290Z,37.13
2022-10-14T17:43:42.872Z,39.35
2022-10-14T17:46:45.447Z,35.67
2022-10-14T17:49:48.252Z,41.03
2022-10-14T17:52:50.687Z,32.40
2022-10-14T17:55:55.447Z,35.58
2022-10-14T17:59:02.391Z,36.40
2022-10-14T18:02:04.820Z,37.85
2022-10-14T18:05:07.488Z,40.75
2022-10-14T18:08:14.160Z,38.67
2022-10-14T18:11:16.778Z,43.35
2022-10-14T18:14:19.241Z,39.25
2022-10-14T18:17:22.179Z,36.97
2022-10-14T18:20:26.462Z,42.17
2022-10-14T18:23:30.852Z,37.00
2022-10-14T18:26:34.898Z,35.45
2022-10-14T18:29:38.280Z,39.80
2022-10-14T18:32:40.701Z,35.25
2022-10-14T18:35:46.401Z,35.88
2022-10-14T18:38:57.705Z,40.43
2022-10-14T18:42:00.014Z,51.72
2022-10-14T18:45:02.303Z,65.28
2022-10-14T18:48:04.756Z,69.15
2022-10-14T18:51:08.123Z,68.93
2022-10-14T18:54:21.130Z,59.03
2022-10-14T18:57:23.752Z,51.75
2022-10-14T19:00:26.969Z,47.22
2022-10-14T19:03:29.224Z,45.92
2022-10-14T19:06:32.867Z,46.03
2022-10-14T19:09:35.256Z,41.33
2022-10-14T19:12:43.549Z,38.95
2022-10-14T19:15:51.455Z,42.40
2022-10-14T19:18:58.477Z,40.97
2022-10-14T19:22:01.138Z,43.42
2022-10-14T19:25:03.860Z,40.43
2022-10-14T19:28:06.262Z,40.50
2022-10-14T19:31:14.092Z,43.05
2022-10-14T19:34:16.961Z,39.05
2022-10-14T19:37:19.264Z,44.65
2022-10-14T19:40:23.691Z,35.50
2022-10-14T19:43:26.987Z,44.28
2022-10-14T19:46:29.757Z,37.55
2022-10-14T19:49:32.080Z,34.15
2022-10-14T19:52:34.414Z,34.42
2022-10-14T19:55:37.230Z,40.47
2022-10-14T19:58:43.909Z,33.72
2022-10-14T20:01:47.381Z,40.03
2022-10-14T20:04:49.869Z,40.35
2022-10-14T20:07:54.506Z,38.65
2022-10-14T20:10:56.890Z,38.27
2022-10-14T20:13:59.520Z,36.47
2022-10-14T20:17:02.020Z,35.00
2022-10-14T20:20:04.947Z,35.25
2022-10-14T20:23:07.173Z,35.95
2022-10-14T20:26:13.483Z,36.20
2022-10-14T20:29:15.878Z,37.70
2022-10-14T20:32:18.176Z,36.92
2022-10-14T20:35:20.568Z,39.15
2022-10-14T20:38:22.898Z,37.55
2022-10-14T20:41:26.632Z,40.90
2022-10-14T20:44:28.951Z,39.30
2022-10-14T20:47:32.503Z,40.53
2022-10-14T20:50:34.783Z,36.35
2022-10-14T20:53:37.190Z,44.13
2022-10-14T20:56:39.961Z,36.07
2022-10-14T20:59:42.814Z,40.30
2022-10-14T21:02:45.189Z,33.22
2022-10-14T21:05:47.497Z,34.80
2022-10-14T21:08:51.662Z,31.38
2022-10-14T21:14:56.226Z,34.45
2022-10-14T21:17:58.790Z,34.30
2022-10-14T21:21:01.278Z,32.97
2022-10-14T21:24:03.955Z,34.05
2022-10-14T21:27:06.418Z,38.87
2022-10-14T21:30:09.485Z,36.05
2022-10-14T21:33:11.748Z,40.03
2022-10-14T21:36:15.479Z,35.42
2022-10-14T21:39:18.762Z,35.97
2022-10-14T21:42:21.334Z,33.37
2022-10-14T21:45:23.854Z,32.53
2022-10-14T21:48:26.489Z,31.58
2022-10-14T21:51:30.086Z,36.75
2022-10-14T21:54:32.414Z,36.30
2022-10-14T21:57:34.691Z,31.10
2022-10-14T22:00:36.908Z,32.78
2022-10-14T22:03:39.996Z,34.20
2022-10-14T22:06:42.351Z,35.45
2022-10-14T22:09:45.044Z,40.40
2022-10-14T22:12:47.307Z,38.40
2022-10-14T22:15:49.615Z,34.72
2022-10-14T22:18:53.674Z,34.80
2022-10-14T22:21:57.701Z,37.25
2022-10-14T22:24:59.969Z,39.17
2022-10-14T22:28:02.957Z,35.60
2022-10-14T22:31:16.592Z,33.60
2022-10-14T22:34:18.858Z,37.60
2022-10-14T22:37:21.737Z,35.05
2022-10-14T22:40:24.285Z,38.83
2022-10-14T22:43:26.522Z,32.50
2022-10-14T22:46:31.035Z,37.50
2022-10-14T22:49:33.353Z,38.75
2022-10-14T22:52:35.592Z,38.60
2022-10-14T22:55:37.869Z,37.75
2022-10-14T22:58:40.449Z,38.87
2022-10-14T23:01:43.312Z,38.92
2022-10-14T23:04:45.653Z,41.53
2022-10-14T23:07:48.224Z,38.67
2022-10-14T23:10:51.744Z,40.20
2022-10-14T23:13:54.178Z,40.53
2022-10-14T23:16:56.529Z,35.05
2022-10-14T23:19:58.900Z,39.53
2022-10-14T23:23:01.225Z,39.85
2022-10-14T23:26:04.103Z,36.95
2022-10-14T23:29:08.744Z,34.37
2022-10-14T23:32:11.062Z,36.05
2022-10-14T23:35:13.451Z,39.80
2022-10-14T23:38:15.710Z,37.25
2022-10-14T23:41:18.816Z,35.80
2022-10-14T23:44:21.223Z,35.87
2022-10-14T23:47:23.722Z,43.15
2022-10-14T23:50:26.249Z,34.03
2022-10-14T23:53:28.940Z,40.10
2022-10-14T23:56:31.253Z,36.08
2022-10-14T23:59:33.579Z,37.90
